Time;durP1;ratioP1;P1;durP2;ratioP2;P2;SDS_P1;SDS_P2;PMS_P1;PMS_P2;Temp;Humidity;BMP_temperature;BMP_pressure;BME280_temperature;BME280_humidity;BME280_pressure;Samples;Min_cycle;Max_cycle;Signal;HPM_P1;HPM_P2
2023/12/11 00:00:44;;;;;;;25.33;11.55;;;1.20;99.90;;;;;;5124029;28;20219;-70
2023/12/11 00:03:10;;;;;;;28.42;14.15;;;;;;;;;;5123911;28;20024;-71
2023/12/11 00:05:38;;;;;;;31.10;14.60;;;1.30;99.90;;;;;;5123511;28;20054;-70
2023/12/11 00:08:04;;;;;;;47.08;17.35;;;;;;;;;;5123970;28;20546;-69
2023/12/11 00:10:31;;;;;;;38.83;16.40;;;;;;;;;;5123603;28;20364;-70
2023/12/11 00:12:56;;;;;;;25.48;13.57;;;1.50;99.90;;;;;;5123814;28;20079;-70
2023/12/11 00:15:22;;;;;;;25.60;13.88;;;1.60;99.90;;;;;;5123412;28;20036;-70
2023/12/11 00:17:48;;;;;;;32.05;13.27;;;;;;;;;;5105676;28;20032;-70
2023/12/11 00:20:14;;;;;;;29.60;14.50;;;1.50;99.90;;;;;;5103004;28;20331;-69
2023/12/11 00:22:40;;;;;;;26.70;13.63;;;;;;;;;;5102991;28;20039;-70
2023/12/11 00:25:06;;;;;;;26.83;13.68;;;;;;;;;;5102938;28;20030;-69
2023/12/11 00:27:32;;;;;;;27.83;13.13;;;1.50;99.90;;;;;;5101571;28;20028;-69
2023/12/11 00:29:58;;;;;;;25.17;13.45;;;1.70;99.90;;;;;;5102818;28;20073;-70
2023/12/11 00:32:24;;;;;;;23.95;13.05;;;;;;;;;;5102927;28;20028;-70
2023/12/11 00:34:50;;;;;;;29.17;13.73;;;;;;;;;;5101492;28;20028;-69
2023/12/11 00:37:17;;;;;;;25.92;12.57;;;1.30;99.90;;;;;;5108802;28;20080;-71
2023/12/11 00:39:43;;;;;;;25.67;13.52;;;1.60;99.90;;;;;;5123386;28;20041;-71
2023/12/11 00:42:09;;;;;;;24.42;12.13;;;1.70;99.90;;;;;;5123123;28;20311;-71
2023/12/11 00:44:37;;;;;;;28.83;12.15;;;1.60;99.90;;;;;;5120577;28;20319;-71
2023/12/11 00:47:04;;;;;;;23.92;10.98;;;1.70;99.90;;;;;;5122847;28;20027;-70
2023/12/11 00:49:30;;;;;;;16.80;8.70;;;;;;;;;;5105728;28;20036;-70
2023/12/11 00:51:57;;;;;;;25.95;10.93;;;1.60;99.90;;;;;;5102520;28;20032;-70
2023/12/11 00:54:23;;;;;;;25.02;10.85;;;1.70;99.90;;;;;;5102470;28;20035;-70
2023/12/11 00:56:49;;;;;;;21.88;12.10;;;1.60;99.90;;;;;;5102459;28;20035;-70
2023/12/11 00:59:14;;;;;;;20.80;11.77;;;1.70;99.90;;;;;;5101812;28;20040;-70
2023/12/11 01:01:40;;;;;;;21.13;10.90;;;;;;;;;;5102407;28;20023;-70
2023/12/11 01:04:06;;;;;;;27.95;12.50;;;1.50;99.90;;;;;;5102226;28;20031;-70
2023/12/11 01:06:32;;;;;;;25.73;10.75;;;;;;;;;;5102139;28;20079;-70
2023/12/11 01:08:58;;;;;;;25.17;11.38;;;1.50;99.90;;;;;;5102156;28;20023;-71
2023/12/11 01:11:24;;;;;;;21.88;11.07;;;1.40;99.90;;;;;;5108080;28;20019;-71
2023/12/11 01:13:49;;;;;;;25.98;13.02;;;1.30;99.90;;;;;;5118783;28;20051;-71
2023/12/11 01:16:15;;;;;;;25.90;12.30;;;;;;;;;;5120234;28;20122;-71
2023/12/11 01:18:42;;;;;;;24.38;11.57;;;0.70;99.90;;;;;;5122458;28;20041;-70
2023/12/11 01:21:08;;;;;;;25.13;12.50;;;;;;;;;;5122594;28;20023;-71
2023/12/11 01:23:34;;;;;;;22.30;11.50;;;0.80;99.90;;;;;;5122673;28;20046;-71
2023/12/11 01:25:59;;;;;;;22.00;10.50;;;0.70;99.90;;;;;;5123033;28;20026;-71
2023/12/11 01:28:25;;;;;;;25.77;11.57;;;;;;;;;;5122641;28;20023;-70
2023/12/11 01:30:51;;;;;;;25.13;13.65;;;;;;;;;;5122549;28;20031;-71
2023/12/11 01:33:17;;;;;;;24.35;12.18;;;;;;;;;;5131833;27;20027;-70
2023/12/11 01:35:43;;;;;;;29.25;12.80;;;0.20;99.90;;;;;;5141335;27;20038;-71
2023/12/11 01:38:09;;;;;;;22.55;12.27;;;0.00;99.90;;;;;;5141436;27;20302;-71
2023/12/11 01:40:35;;;;;;;26.40;13.57;;;0.00;99.90;;;;;;5142499;27;20015;-71
2023/12/11 01:43:14;;;;;;;25.45;12.23;;;0.00;99.90;;;;;;5142500;27;20054;-71
2023/12/11 01:45:40;;;;;;;;;;;0.00;99.90;;;;;;5143001;27;20210;-72
2023/12/11 01:48:07;;;;;;;23.77;11.30;;;0.00;99.90;;;;;;5142420;27;20230;-72
2023/12/11 01:50:33;;;;;;;25.73;12.50;;;;;;;;;;5127939;27;20111;-71
2023/12/11 01:52:59;;;;;;;19.17;10.43;;;-0.10;99.90;;;;;;5142567;27;20054;-71
2023/12/11 01:55:26;;;;;;;25.88;12.35;;;;;;;;;;5142044;27;20031;-72
2023/12/11 01:57:53;;;;;;;28.13;12.15;;;0.00;99.90;;;;;;5142301;27;20031;-71
2023/12/11 02:00:19;;;;;;;23.55;11.60;;;0.20;99.90;;;;;;5141016;27;20327;-70
2023/12/11 02:02:45;;;;;;;24.75;12.93;;;0.10;99.90;;;;;;5142189;27;20121;-70
2023/12/11 02:05:13;;;;;;;26.45;14.55;;;0.00;99.90;;;;;;5142073;27;20047;-70
2023/12/11 02:07:39;;;;;;;26.45;13.32;;;;;;;;;;5127835;27;20091;-70
2023/12/11 02:10:07;;;;;;;24.73;12.80;;;0.10;99.90;;;;;;5141231;27;20063;-70
2023/12/11 02:12:33;;;;;;;32.63;13.35;;;;;;;;;;5140742;27;20030;-71
2023/12/11 02:14:59;;;;;;;33.45;16.20;;;0.20;99.90;;;;;;5141920;27;20027;-71
2023/12/11 02:17:26;;;;;;;33.03;16.20;;;0.20;99.90;;;;;;5140635;27;20215;-71
2023/12/11 02:19:52;;;;;;;33.75;16.20;;;;;;;;;;5141907;27;20311;-71
2023/12/11 02:22:18;;;;;;;32.25;16.80;;;0.30;99.90;;;;;;5141861;27;20394;-71
2023/12/11 02:24:55;;;;;;;35.95;15.82;;;0.30;99.90;;;;;;5134074;27;20055;-71
2023/12/11 02:27:21;;;;;;;30.42;14.35;;;;;;;;;;5138854;27;20019;-71
2023/12/11 02:29:50;;;;;;;35.60;17.75;;;;;;;;;;5141802;27;20039;-71
2023/12/11 02:32:16;;;;;;;34.65;16.45;;;0.60;99.90;;;;;;5141876;27;20018;-71
2023/12/11 02:34:42;;;;;;;33.15;17.67;;;0.40;99.90;;;;;;5141729;27;20046;-71
2023/12/11 02:37:08;;;;;;;32.20;16.20;;;;;;;;;;5141709;27;20533;-71
2023/12/11 02:39:34;;;;;;;30.73;14.63;;;;;;;;;;5140364;28;20196;-71
2023/12/11 02:42:00;;;;;;;35.50;16.48;;;0.30;99.90;;;;;;5141716;28;20047;-71
2023/12/11 02:44:25;;;;;;;31.65;15.55;;;0.40;99.90;;;;;;5140459;28;20368;-72
2023/12/11 02:46:51;;;;;;;33.50;15.38;;;;;;;;;;5140415;28;20019;-71
2023/12/11 02:49:19;;;;;;;33.90;15.60;;;;;;;;;;5141650;28;20346;-71
2023/12/11 02:51:45;;;;;;;23.25;11.02;;;0.50;99.90;;;;;;5141564;28;20030;-71
2023/12/11 02:54:11;;;;;;;30.80;13.93;;;;;;;;;;5141455;27;20026;-72
2023/12/11 02:56:40;;;;;;;29.20;14.80;;;0.70;99.90;;;;;;5141483;28;20266;-71
2023/12/11 02:59:06;;;;;;;29.05;14.20;;;0.90;99.90;;;;;;5141668;27;20019;-70
2023/12/11 03:01:32;;;;;;;28.95;13.75;;;1.30;99.90;;;;;;5141398;27;20030;-71
2023/12/11 03:03:57;;;;;;;23.58;12.00;;;0.90;99.90;;;;;;5141696;27;20030;-71
2023/12/11 03:06:23;;;;;;;28.92;13.20;;;;;;;;;;5141375;27;20381;-70
2023/12/11 03:08:49;;;;;;;21.73;11.10;;;1.20;99.90;;;;;;5141535;28;20536;-71
2023/12/11 03:11:15;;;;;;;21.33;10.60;;;;;;;;;;5141596;27;20094;-71
2023/12/11 03:13:41;;;;;;;25.67;11.50;;;1.40;99.90;;;;;;5141523;28;20322;-72
2023/12/11 03:16:11;;;;;;;20.58;11.07;;;1.30;99.90;;;;;;5141315;27;20034;-73
2023/12/11 03:18:37;;;;;;;23.67;11.10;;;1.30;99.90;;;;;;5141560;27;20026;-72
2023/12/11 03:21:02;;;;;;;19.08;10.68;;;1.30;99.90;;;;;;5141398;27;20019;-73
2023/12/11 03:23:28;;;;;;;23.40;11.93;;;1.10;99.90;;;;;;5145307;27;20023;-72
2023/12/11 03:25:54;;;;;;;23.73;10.15;;;;;;;;;;5145130;27;20027;-70
2023/12/11 03:28:21;;;;;;;23.00;12.05;;;;;;;;;;5145687;27;20094;-73
2023/12/11 03:30:46;;;;;;;26.00;12.35;;;1.20;99.90;;;;;;5145347;27;20080;-72
2023/12/11 03:33:12;;;;;;;22.75;10.93;;;1.20;99.90;;;;;;5143863;27;20023;-73
2023/12/11 03:35:38;;;;;;;21.17;11.23;;;1.30;99.90;;;;;;5135058;27;20062;-72
2023/12/11 03:38:03;;;;;;;21.75;10.52;;;1.30;99.90;;;;;;5144918;27;20015;-72
2023/12/11 03:40:29;;;;;;;22.42;10.02;;;;;;;;;;5144861;27;20095;-72
2023/12/11 03:42:55;;;;;;;18.98;9.80;;;1.50;99.90;;;;;;5144839;27;20076;-72
2023/12/11 03:45:21;;;;;;;19.20;9.90;;;;;;;;;;5143379;27;20186;-72
2023/12/11 03:47:46;;;;;;;17.70;9.77;;;1.70;99.90;;;;;;5144811;27;20031;-70
2023/12/11 03:50:12;;;;;;;17.95;9.73;;;1.70;99.90;;;;;;5144790;27;20018;-73
2023/12/11 03:52:38;;;;;;;17.42;8.50;;;1.80;99.90;;;;;;5143500;27;20019;-72
2023/12/11 03:55:04;;;;;;;18.17;9.18;;;1.80;99.90;;;;;;5144850;27;20023;-72
2023/12/11 03:57:30;;;;;;;16.25;8.60;;;;;;;;;;5144645;27;20086;-72
2023/12/11 03:59:56;;;;;;;15.23;8.75;;;;;;;;;;5144673;27;20056;-72
2023/12/11 04:02:22;;;;;;;15.10;7.82;;;1.90;99.90;;;;;;5143217;27;20261;-71
2023/12/11 04:04:48;;;;;;;14.20;6.72;;;2.00;99.90;;;;;;5144484;27;20035;-72
2023/12/11 04:07:13;;;;;;;16.27;8.20;;;2.00;99.90;;;;;;5144741;27;20019;-72
2023/12/11 04:09:39;;;;;;;15.50;7.80;;;2.10;99.90;;;;;;5144560;27;20030;-72
2023/12/11 04:12:05;;;;;;;12.40;6.35;;;2.10;99.90;;;;;;5144406;27;20094;-72
2023/12/11 04:14:30;;;;;;;8.70;5.43;;;2.20;99.90;;;;;;5143196;27;20298;-71
2023/12/11 04:16:56;;;;;;;7.13;3.72;;;;;;;;;;5142478;27;20051;-71
2023/12/11 04:19:22;;;;;;;9.73;6.00;;;;;;;;;;5144332;27;20094;-71
2023/12/11 04:21:48;;;;;;;13.82;6.82;;;2.60;99.90;;;;;;5144222;27;20026;-71
2023/12/11 04:24:14;;;;;;;9.20;5.03;;;2.70;99.90;;;;;;5144068;27;20366;-72
2023/12/11 04:26:40;;;;;;;7.80;4.90;;;2.50;99.90;;;;;;5143959;27;20049;-72
2023/12/11 04:29:07;;;;;;;7.85;4.75;;;2.90;99.90;;;;;;5144114;27;20254;-73
2023/12/11 04:31:33;;;;;;;8.35;5.38;;;;;;;;;;5144142;27;20030;-72
2023/12/11 04:33:59;;;;;;;7.25;3.95;;;3.00;99.90;;;;;;5141644;27;20015;-73
2023/12/11 04:36:24;;;;;;;6.20;4.47;;;3.00;99.90;;;;;;5143688;27;20035;-72
2023/12/11 04:38:51;;;;;;;8.80;4.65;;;;;;;;;;5143753;27;20102;-72
2023/12/11 04:41:16;;;;;;;9.07;4.75;;;3.10;99.90;;;;;;5143913;27;20035;-72
2023/12/11 04:43:43;;;;;;;11.43;5.43;;;;;;;;;;5143691;27;20038;-72
2023/12/11 04:46:08;;;;;;;8.35;4.70;;;3.10;99.90;;;;;;5143531;27;20067;-73
2023/12/11 04:48:34;;;;;;;14.48;6.05;;;3.20;99.90;;;;;;5143702;27;20019;-72
2023/12/11 04:51:00;;;;;;;16.58;6.63;;;3.10;99.90;;;;;;5143398;27;20184;-72
2023/12/11 04:53:25;;;;;;;8.57;4.50;;;3.20;99.90;;;;;;5143350;27;20035;-72
2023/12/11 04:55:51;;;;;;;12.38;5.15;;;;;;;;;;5143329;27;20227;-73
2023/12/11 04:58:17;;;;;;;6.38;4.43;;;;;;;;;;5140763;27;20030;-70
2023/12/11 05:00:43;;;;;;;6.43;3.70;;;3.50;99.90;;;;;;5130856;27;20364;-72
2023/12/11 05:03:09;;;;;;;10.60;5.00;;;3.30;99.90;;;;;;5141856;27;20019;-71
2023/12/11 05:05:36;;;;;;;6.15;3.60;;;3.30;99.90;;;;;;5142914;27;20085;-71
2023/12/11 05:08:02;;;;;;;4.18;2.88;;;;;;;;;;5143130;27;20048;-71
2023/12/11 05:10:28;;;;;;;8.90;4.22;;;;;;;;;;5143063;27;20342;-70
2023/12/11 05:12:54;;;;;;;4.40;3.00;;;3.30;99.90;;;;;;5143049;27;20058;-72
2023/12/11 05:15:20;;;;;;;10.35;3.42;;;3.30;99.90;;;;;;5142763;27;20323;-72
2023/12/11 05:17:45;;;;;;;7.35;4.30;;;3.30;99.90;;;;;;5141588;27;20023;-73
2023/12/11 05:20:12;;;;;;;6.75;3.97;;;3.70;99.90;;;;;;5141670;27;20026;-72
2023/12/11 05:22:38;;;;;;;17.40;7.88;;;;;;;;;;5119584;27;20055;-71
2023/12/11 05:25:05;;;;;;;20.15;10.60;;;3.40;99.90;;;;;;5122215;28;20073;-71
2023/12/11 05:27:30;;;;;;;22.33;11.40;;;3.20;99.90;;;;;;5122070;28;20318;-71
2023/12/11 05:29:56;;;;;;;18.63;8.65;;;;;;;;;;5122058;28;20050;-72
2023/12/11 05:32:22;;;;;;;11.50;4.72;;;;;;;;;;5110619;28;20032;-72
2023/12/11 05:34:48;;;;;;;10.27;6.80;;;;;;;;;;5101539;28;20024;-71
2023/12/11 05:37:14;;;;;;;9.93;6.28;;;3.20;99.90;;;;;;5101617;28;20043;-72
2023/12/11 05:39:40;;;;;;;17.38;9.95;;;3.00;99.90;;;;;;5101374;28;20016;-71
2023/12/11 05:42:06;;;;;;;18.45;9.30;;;2.80;99.90;;;;;;5111700;28;20024;-71
2023/12/11 05:44:31;;;;;;;15.35;7.20;;;2.90;99.90;;;;;;5121969;28;20023;-69
2023/12/11 05:46:57;;;;;;;16.80;8.43;;;2.90;99.90;;;;;;5110689;28;20158;-70
2023/12/11 05:49:23;;;;;;;16.88;8.50;;;;;;;;;;5101577;28;20031;-72
2023/12/11 05:51:49;;;;;;;18.45;8.82;;;;;;;;;;5105542;28;20132;-71
2023/12/11 05:54:15;;;;;;;22.35;10.63;;;;;;;;;;5101375;28;20027;-72
2023/12/11 05:56:41;;;;;;;27.80;10.93;;;2.70;99.90;;;;;;5101220;28;20042;-71
2023/12/11 05:59:06;;;;;;;23.52;11.38;;;2.40;99.90;;;;;;5101053;28;20028;-71
2023/12/11 06:01:32;;;;;;;24.80;10.60;;;2.50;99.90;;;;;;5101256;28;20024;-71
2023/12/11 06:04:00;;;;;;;39.35;17.05;;;;;;;;;;5101139;28;20077;-71
2023/12/11 06:06:26;;;;;;;30.67;14.33;;;2.60;99.90;;;;;;5113375;27;20331;-71
2023/12/11 06:08:52;;;;;;;30.13;15.60;;;;;;;;;;5121411;28;20016;-71
2023/12/11 06:11:18;;;;;;;29.38;14.52;;;;;;;;;;5119661;28;20028;-71
2023/12/11 06:13:44;;;;;;;31.27;15.32;;;2.50;99.90;;;;;;5120755;28;20027;-71
2023/12/11 06:16:10;;;;;;;34.75;15.07;;;;;;;;;;5120366;28;20040;-71
2023/12/11 06:18:38;;;;;;;29.83;15.93;;;2.20;99.90;;;;;;5101396;28;20296;-70
2023/12/11 06:21:04;;;;;;;32.63;15.43;;;2.00;99.90;;;;;;5099888;28;20028;-70
2023/12/11 06:23:30;;;;;;;32.33;15.82;;;;;;;;;;5100173;28;20028;-72
2023/12/11 06:25:56;;;;;;;39.45;17.08;;;;;;;;;;5100432;28;20039;-72
2023/12/11 06:28:21;;;;;;;34.70;16.52;;;2.10;99.90;;;;;;5100649;28;20068;-71
2023/12/11 06:30:47;;;;;;;35.08;16.27;;;1.90;99.90;;;;;;5101058;28;20024;-72
2023/12/11 06:33:13;;;;;;;31.20;14.23;;;2.10;99.90;;;;;;5114418;28;20120;-73
2023/12/11 06:35:39;;;;;;;30.60;14.43;;;;;;;;;;5113355;28;20040;-72
2023/12/11 06:38:05;;;;;;;33.30;15.07;;;;;;;;;;5101251;28;20020;-71
2023/12/11 06:40:31;;;;;;;25.58;11.75;;;;;;;;;;5099875;28;20059;-72
2023/12/11 06:42:57;;;;;;;29.67;10.18;;;2.10;99.90;;;;;;5100955;28;20044;-70
2023/12/11 06:45:22;;;;;;;26.20;13.57;;;1.60;99.90;;;;;;5101446;28;20638;-74
2023/12/11 06:47:48;;;;;;;26.80;13.93;;;;;;;;;;5101277;28;20293;-74
2023/12/11 06:50:19;;;;;;;27.27;12.23;;;;;;;;;;5101176;28;20036;-74
2023/12/11 06:52:45;;;;;;;23.17;11.27;;;2.00;99.90;;;;;;5101683;28;20032;-73
2023/12/11 06:55:11;;;;;;;16.23;7.40;;;;;;;;;;5101872;28;20047;-76
2023/12/11 06:57:37;;;;;;;14.73;6.60;;;;;;;;;;5103837;28;20016;-72
2023/12/11 07:00:05;;;;;;;25.38;11.60;;;2.40;99.90;;;;;;5103526;28;20094;-73
2023/12/11 07:02:31;;;;;;;33.22;14.50;;;;;;;;;;5104450;28;20027;-74
2023/12/11 07:04:56;;;;;;;22.83;12.05;;;2.50;99.90;;;;;;5103460;28;20251;-72
2023/12/11 07:07:23;;;;;;;19.35;9.88;;;;;;;;;;5103837;28;20337;-73
2023/12/11 07:09:49;;;;;;;14.07;6.45;;;2.40;99.90;;;;;;5124501;27;20027;-71
2023/12/11 07:12:15;;;;;;;26.65;12.77;;;;;;;;;;5115636;28;20380;-71
2023/12/11 07:14:40;;;;;;;22.75;13.55;;;3.00;99.90;;;;;;5104346;28;20016;-70
2023/12/11 07:17:06;;;;;;;32.45;15.73;;;2.90;99.90;;;;;;5119421;28;20027;-70
2023/12/11 07:19:32;;;;;;;31.77;15.75;;;;;;;;;;5124856;28;20066;-70
2023/12/11 07:21:58;;;;;;;29.55;15.68;;;2.80;99.90;;;;;;5124950;28;20038;-70
2023/12/11 07:24:24;;;;;;;30.85;15.50;;;;;;;;;;5124657;28;20020;-70
2023/12/11 07:26:49;;;;;;;38.50;19.25;;;2.60;99.90;;;;;;5124891;28;20015;-70
2023/12/11 07:29:15;;;;;;;34.22;17.45;;;;;;;;;;5123199;28;20023;-70
2023/12/11 07:31:43;;;;;;;31.38;16.25;;;;;;;;;;5124544;28;20243;-70
2023/12/11 07:34:08;;;;;;;29.60;15.73;;;3.10;99.90;;;;;;5124791;28;20020;-71
2023/12/11 07:36:34;;;;;;;29.25;15.60;;;;;;;;;;5124390;28;20098;-70
2023/12/11 07:39:00;;;;;;;33.38;16.67;;;;;;;;;;5124506;28;20394;-70
2023/12/11 07:41:26;;;;;;;31.20;16.33;;;;;;;;;;5124480;28;20036;-70
2023/12/11 07:43:52;;;;;;;39.17;17.42;;;;;;;;;;5124355;28;20435;-70
2023/12/11 07:46:19;;;;;;;48.17;23.27;;;2.70;99.90;;;;;;5124304;28;20030;-71
2023/12/11 07:48:45;;;;;;;37.15;20.77;;;3.00;99.90;;;;;;5124153;28;20020;-70
2023/12/11 07:51:18;;;;;;;43.47;21.95;;;2.80;99.90;;;;;;5124274;28;20104;-71
2023/12/11 07:53:45;;;;;;;38.78;21.55;;;2.90;99.90;;;;;;5124000;27;20015;-71
2023/12/11 07:56:21;;;;;;;40.00;19.23;;;2.90;99.90;;;;;;5124271;28;20036;-71
2023/12/11 07:58:47;;;;;;;34.20;16.80;;;2.90;99.90;;;;;;5124218;28;20275;-71
2023/12/11 08:01:13;;;;;;;37.83;16.30;;;;;;;;;;5124126;28;20094;-72
2023/12/11 08:03:40;;;;;;;34.28;16.80;;;;;;;;;;5123960;28;20029;-72
2023/12/11 08:06:08;;;;;;;37.58;17.85;;;;;;;;;;5123681;28;20063;-71
2023/12/11 08:08:40;;;;;;;36.60;17.33;;;3.20;99.90;;;;;;5122603;28;20023;-71
2023/12/11 08:11:15;;;;;;;45.22;19.63;;;3.50;99.90;;;;;;5123874;28;20497;-71
2023/12/11 08:13:42;;;;;;;34.65;17.25;;;3.40;99.90;;;;;;5123811;28;20378;-71
2023/12/11 08:16:09;;;;;;;36.88;19.77;;;;;;;;;;5123682;28;20366;-70
2023/12/11 08:18:35;;;;;;;46.00;19.98;;;;;;;;;;5123967;28;20016;-71
2023/12/11 08:21:00;;;;;;;41.30;21.23;;;3.40;99.90;;;;;;5123721;28;20099;-71
2023/12/11 08:23:26;;;;;;;39.65;19.35;;;;;;;;;;5121472;28;20413;-70
2023/12/11 08:25:52;;;;;;;40.78;19.65;;;3.80;99.90;;;;;;5123798;28;20054;-70
2023/12/11 08:28:18;;;;;;;52.20;24.60;;;;;;;;;;5123819;28;20027;-70
2023/12/11 08:30:44;;;;;;;46.55;21.98;;;;;;;;;;5123564;28;20031;-71
2023/12/11 08:33:10;;;;;;;42.95;21.00;;;4.00;99.90;;;;;;5123650;28;20297;-71
2023/12/11 08:35:36;;;;;;;36.42;20.33;;;;;;;;;;5123295;28;20061;-71
2023/12/11 08:38:02;;;;;;;24.50;13.90;;;;;;;;;;5123258;28;20296;-70
2023/12/11 08:40:28;;;;;;;37.53;20.45;;;;;;;;;;5122900;28;20062;-71
2023/12/11 08:42:54;;;;;;;23.63;12.23;;;;;;;;;;5121903;28;20020;-71
2023/12/11 08:45:20;;;;;;;24.63;12.23;;;4.90;99.90;;;;;;5122460;28;20019;-70
2023/12/11 08:47:46;;;;;;;22.80;13.00;;;;;;;;;;5122916;28;20023;-70
2023/12/11 08:50:12;;;;;;;23.35;12.20;;;;;;;;;;5122924;28;20023;-71
2023/12/11 08:52:38;;;;;;;22.63;12.25;;;4.80;99.90;;;;;;5122849;28;20032;-71
2023/12/11 08:55:05;;;;;;;28.05;12.43;;;4.70;99.90;;;;;;5122678;28;20308;-71
2023/12/11 08:57:30;;;;;;;18.88;11.48;;;4.60;99.90;;;;;;5122652;28;20027;-70
2023/12/11 08:59:57;;;;;;;22.90;11.70;;;4.80;99.90;;;;;;5122893;28;20122;-70
2023/12/11 09:02:23;;;;;;;19.80;11.85;;;4.70;99.90;;;;;;5122147;28;20051;-70
2023/12/11 09:04:49;;;;;;;15.02;9.98;;;;;;;;;;5122152;28;20232;-70
2023/12/11 09:07:15;;;;;;;18.70;9.65;;;;;;;;;;5122557;28;20066;-70
2023/12/11 09:09:40;;;;;;;16.35;10.00;;;4.90;99.90;;;;;;5122474;28;20046;-70
2023/12/11 09:12:06;;;;;;;18.23;9.43;;;5.10;99.90;;;;;;5122403;28;20015;-70
2023/12/11 09:14:33;;;;;;;14.48;8.93;;;4.80;99.10;;;;;;5122456;28;20019;-71
2023/12/11 09:16:59;;;;;;;21.17;9.95;;;;;;;;;;5122406;28;20382;-70
2023/12/11 09:19:25;;;;;;;19.52;9.63;;;;;;;;;;5121806;28;20020;-71
2023/12/11 09:21:51;;;;;;;24.27;13.60;;;5.00;99.90;;;;;;5122120;28;20270;-71
2023/12/11 09:24:17;;;;;;;24.63;13.38;;;4.80;99.90;;;;;;5122529;28;20023;-71
2023/12/11 09:26:43;;;;;;;23.65;13.52;;;4.80;99.90;;;;;;5122354;28;20238;-70
2023/12/11 09:29:10;;;;;;;29.20;15.77;;;;;;;;;;5121037;28;20323;-71
2023/12/11 09:31:36;;;;;;;28.40;14.60;;;5.20;99.90;;;;;;5121971;28;20038;-71
2023/12/11 09:34:02;;;;;;;26.10;12.88;;;;;;;;;;5122128;28;20075;-71
2023/12/11 09:36:28;;;;;;;36.75;16.65;;;5.00;99.90;;;;;;5121935;28;20042;-71
2023/12/11 09:38:55;;;;;;;34.20;16.23;;;5.30;99.90;;;;;;5120695;28;20024;-71
2023/12/11 09:41:21;;;;;;;29.13;15.80;;;;;;;;;;5120860;28;20039;-71
2023/12/11 09:43:48;;;;;;;39.88;16.00;;;5.40;99.90;;;;;;5121900;28;20015;-71
2023/12/11 09:46:18;;;;;;;33.15;17.70;;;5.20;96.40;;;;;;5121861;28;20039;-70
2023/12/11 09:48:46;;;;;;;32.08;16.48;;;5.50;96.40;;;;;;5120682;28;20376;-71
2023/12/11 09:51:14;;;;;;;29.98;16.92;;;5.20;96.40;;;;;;5121849;28;20039;-71
2023/12/11 09:53:40;;;;;;;32.00;17.08;;;5.20;99.90;;;;;;5121573;28;20022;-71
2023/12/11 09:56:06;;;;;;;32.30;17.38;;;5.20;99.90;;;;;;5121567;28;20043;-70
2023/12/11 09:58:32;;;;;;;28.20;15.95;;;5.00;99.90;;;;;;5121413;28;20015;-71
2023/12/11 10:01:00;;;;;;;32.17;16.73;;;5.20;99.90;;;;;;5121174;28;20030;-71
2023/12/11 10:03:29;;;;;;;29.50;16.90;;;5.00;98.70;;;;;;5121319;28;20035;-71
2023/12/11 10:05:59;;;;;;;32.72;17.90;;;5.20;96.40;;;;;;5104440;28;20064;-70
2023/12/11 10:08:26;;;;;;;28.23;16.48;;;;;;;;;;5100753;28;20056;-71
2023/12/11 10:11:11;;;;;;;30.85;15.82;;;5.30;99.90;;;;;;5100937;28;20039;-71
2023/12/11 10:13:38;;;;;;;35.47;18.80;;;5.00;99.90;;;;;;5101288;28;20020;-71
2023/12/11 10:16:05;;;;;;;36.95;19.17;;;5.00;96.20;;;;;;5101182;28;20042;-70
2023/12/11 10:18:31;;;;;;;38.63;18.88;;;4.70;97.70;;;;;;5101057;28;20346;-71
2023/12/11 10:20:59;;;;;;;34.03;19.20;;;4.90;99.90;;;;;;5101115;28;20028;-71
2023/12/11 10:23:25;;;;;;;35.55;18.98;;;;;;;;;;5100940;28;20030;-70
2023/12/11 10:25:53;;;;;;;32.00;17.25;;;5.10;96.40;;;;;;5100972;28;20086;-70
2023/12/11 10:28:22;;;;;;;29.55;15.60;;;5.50;99.90;;;;;;5100959;28;20091;-71
2023/12/11 10:30:48;;;;;;;;;;;5.30;96.30;;;;;;5100905;28;20307;-71
2023/12/11 10:33:13;;;;;;;31.13;15.63;;;5.10;99.90;;;;;;5111188;28;19960;-71
2023/12/11 10:35:39;;;;;;;30.52;16.50;;;5.20;99.90;;;;;;5121368;28;20371;-71
2023/12/11 10:38:05;;;;;;;32.70;17.75;;;5.30;95.40;;;;;;5121344;28;20446;-70
2023/12/11 10:40:41;;;;;;;37.38;17.23;;;5.30;95.00;;;;;;5120117;28;20031;-71
2023/12/11 10:43:08;;;;;;;35.72;17.25;;;;;;;;;;5121029;28;20031;-71
2023/12/11 10:45:34;;;;;;;32.90;17.13;;;5.60;99.90;;;;;;5121070;28;20019;-71
2023/12/11 10:48:03;;;;;;;30.20;17.52;;;5.30;95.10;;;;;;5121052;28;20100;-71
2023/12/11 10:50:30;;;;;;;;;;;5.30;95.30;;;;;;5121353;28;20069;-71
2023/12/11 10:52:59;;;;;;;32.58;17.13;;;5.70;99.90;;;;;;5120900;28;19937;-71
2023/12/11 10:55:25;;;;;;;35.38;18.50;;;;;;;;;;5120606;28;20258;-71
2023/12/11 10:57:52;;;;;;;31.10;17.10;;;5.60;99.90;;;;;;5120745;28;20333;-71
2023/12/11 11:00:20;;;;;;;32.92;18.25;;;6.00;99.90;;;;;;5120819;28;20042;-71
2023/12/11 11:02:48;;;;;;;34.88;19.08;;;5.20;96.10;;;;;;5120849;28;20023;-71
2023/12/11 11:05:15;;;;;;;34.90;18.53;;;5.30;99.90;;;;;;5120459;28;20331;-71
2023/12/11 11:07:52;;;;;;;35.38;19.45;;;5.40;94.50;;;;;;5120678;28;20083;-71
2023/12/11 11:10:26;;;;;;;33.72;17.48;;;5.50;94.70;;;;;;5120564;28;20051;-72
2023/12/11 11:13:05;;;;;;;24.98;14.15;;;5.50;98.50;;;;;;5120365;28;20094;-71
2023/12/11 11:15:31;;;;;;;25.35;14.82;;;;;;;;;;5120506;28;20023;-71
2023/12/11 11:18:09;;;;;;;21.38;12.57;;;5.90;93.90;;;;;;5120468;28;20393;-71
2023/12/11 11:20:39;;;;;;;28.08;15.35;;;5.80;99.90;;;;;;5120587;28;20090;-72
2023/12/11 11:23:16;;;;;;;22.13;12.43;;;6.20;99.90;;;;;;5120457;28;20085;-72
2023/12/11 11:25:56;;;;;;;16.55;9.57;;;6.10;93.50;;;;;;5120744;28;20112;-71
2023/12/11 11:28:41;;;;;;;24.88;13.75;;;6.20;99.90;;;;;;5120453;28;20035;-71
2023/12/11 11:31:10;;;;;;;18.40;10.00;;;6.50;96.00;;;;;;5120451;28;20090;-72
2023/12/11 11:33:44;;;;;;;22.63;13.00;;;6.50;93.70;;;;;;5120605;28;20051;-71
2023/12/11 11:36:10;;;;;;;19.05;10.45;;;;;;;;;;5119067;28;20023;-71
2023/12/11 11:39:06;;;;;;;21.27;12.10;;;6.50;91.40;;;;;;5119663;28;20255;-70
2023/12/11 11:41:32;;;;;;;19.85;11.15;;;;;;;;;;5103304;28;20035;-70
2023/12/11 11:43:58;;;;;;;22.42;12.57;;;;;;;;;;5123868;28;20088;-70
2023/12/11 11:46:24;;;;;;;19.17;11.57;;;;;;;;;;5124157;28;20251;-71
2023/12/11 11:48:50;;;;;;;19.85;11.43;;;;;;;;;;5124183;28;20030;-72
2023/12/11 11:51:17;;;;;;;24.20;14.32;;;6.60;97.70;;;;;;5124326;28;20026;-72
2023/12/11 11:53:44;;;;;;;26.58;14.45;;;6.40;98.10;;;;;;5123954;28;20587;-70
2023/12/11 11:56:11;;;;;;;28.70;16.52;;;6.30;90.90;;;;;;5123673;28;20089;-72
2023/12/11 11:58:37;;;;;;;29.33;14.82;;;;;;;;;;5124013;28;20032;-72
2023/12/11 12:01:04;;;;;;;27.60;15.02;;;6.30;90.60;;;;;;5123794;28;20011;-72
2023/12/11 12:03:43;;;;;;;25.38;14.93;;;6.30;96.10;;;;;;5124154;28;20027;-72
2023/12/11 12:06:09;;;;;;;31.60;17.08;;;6.80;97.50;;;;;;5121557;28;20051;-72
2023/12/11 12:08:41;;;;;;;29.80;16.48;;;6.90;97.00;;;;;;5137703;27;20303;-70
2023/12/11 12:11:07;;;;;;;30.48;17.30;;;6.70;96.60;;;;;;5115839;28;20353;-71
2023/12/11 12:13:38;;;;;;;33.35;18.13;;;7.00;87.40;;;;;;5103423;28;20356;-70
2023/12/11 12:16:04;;;;;;;33.92;18.20;;;7.30;95.40;;;;;;5116798;28;20062;-70
2023/12/11 12:18:30;;;;;;;32.05;18.08;;;7.10;92.70;;;;;;5121880;28;20028;-71
2023/12/11 12:21:05;;;;;;;34.35;18.13;;;6.80;95.60;;;;;;5123285;28;20022;-71
2023/12/11 12:23:31;;;;;;;32.35;17.25;;;7.20;95.80;;;;;;5123348;28;20015;-71
2023/12/11 12:26:00;;;;;;;29.73;17.63;;;6.80;87.50;;;;;;5123458;28;20031;-70
2023/12/11 12:28:27;;;;;;;;;;;6.80;88.10;;;;;;5107247;28;20529;-71
2023/12/11 12:30:53;;;;;;;31.83;17.00;;;;;;;;;;5103298;28;19908;-70
2023/12/11 12:33:20;;;;;;;33.88;17.77;;;6.30;89.60;;;;;;5102979;28;20034;-70
2023/12/11 12:35:47;;;;;;;30.20;17.42;;;5.90;90.60;;;;;;5103229;28;20067;-70
2023/12/11 12:38:14;;;;;;;32.00;16.73;;;6.50;96.90;;;;;;5103272;28;20012;-70
2023/12/11 12:40:41;;;;;;;29.85;16.33;;;6.20;90.20;;;;;;5102999;28;20032;-70
2023/12/11 12:43:11;;;;;;;30.27;16.10;;;5.90;97.50;;;;;;5102949;28;20046;-72
2023/12/11 12:45:37;;;;;;;35.47;17.50;;;5.90;98.00;;;;;;5102924;28;20338;-70
2023/12/11 12:48:04;;;;;;;30.20;15.85;;;;;;;;;;5102720;28;20028;-71
2023/12/11 12:50:30;;;;;;;28.20;16.52;;;;;;;;;;5102964;28;20087;-71
2023/12/11 12:53:07;;;;;;;27.92;16.05;;;6.60;97.50;;;;;;5102842;28;20024;-71
2023/12/11 12:55:34;;;;;;;27.02;16.15;;;7.60;89.60;;;;;;5102033;28;20038;-71
2023/12/11 12:57:59;;;;;;;26.55;15.43;;;9.20;92.40;;;;;;5115252;28;20032;-72
2023/12/11 13:00:26;;;;;;;23.00;14.68;;;11.40;87.50;;;;;;5123125;28;20038;-72
2023/12/11 13:02:52;;;;;;;30.67;20.05;;;13.40;66.40;;;;;;5122910;28;20068;-72
2023/12/11 13:05:18;;;;;;;38.50;23.17;;;13.80;66.90;;;;;;5104310;28;20375;-71
2023/12/11 13:08:02;;;;;;;33.85;21.70;;;11.30;66.00;;;;;;5102358;28;20038;-71
2023/12/11 13:10:27;;;;;;;32.30;21.15;;;10.10;82.70;;;;;;5102418;28;20023;-70